This is the latest recevied weather packets stored in our database for station/object DG5TS-10. If no packets are shown the sender has not sent any weather packets the latest 10 day(s).
| Time | Temp. | Humidity | Pressure | Rain* | Wind** | Luminosity | Snow |
|---|---|---|---|---|---|---|---|
| 1777552769 | 29.44° C | 13% | 1032.1 hPa | - | - | - | - |
| 1777551869 | 31.11° C | 13% | 1032.1 hPa | - | - | - | - |
| 1777550969 | 31.11° C | 14% | 1032.2 hPa | - | - | - | - |
| 1777550069 | 30.56° C | 15% | 1032.3 hPa | - | - | - | - |
| 1777549168 | 29.44° C | 15% | 1032.4 hPa | - | - | - | - |
| 1777548268 | 28.89° C | 16% | 1032.5 hPa | - | - | - | - |
| 1777547368 | 28.33° C | 17% | 1032.6 hPa | - | - | - | - |
| 1777546468 | 26.67° C | 18% | 1032.7 hPa | - | - | - | - |
| 1777545568 | 26.11° C | 19% | 1032.9 hPa | - | - | - | - |
| 1777544668 | 26.11° C | 20% | 1033 hPa | - | - | - | - |
| 1777543767 | 27.22° C | 18% | 1033 hPa | - | - | - | - |
| 1777542867 | 24.44° C | 22% | 1033.2 hPa | - | - | - | - |
| 1777541967 | 23.89° C | 22% | 1033.2 hPa | - | - | - | - |
| 1777541067 | 21.67° C | 25% | 1033.4 hPa | - | - | - | - |
| 1777540167 | 20.56° C | 26% | 1033.5 hPa | - | - | - | - |
| 1777539267 | 20.56° C | 26% | 1033.5 hPa | - | - | - | - |
| 1777538367 | 20.56° C | 26% | 1033.5 hPa | - | - | - | - |
| 1777537467 | 22.22° C | 24% | 1033.4 hPa | - | - | - | - |
| 1777536567 | 20.56° C | 26% | 1033.8 hPa | - | - | - | - |
| 1777535666 | 20° C | 27% | 1033.7 hPa | - | - | - | - |
| 1777534766 | 19.44° C | 27% | 1033.7 hPa | - | - | - | - |
| 1777533866 | 19.44° C | 28% | 1033.5 hPa | - | - | - | - |
| 1777532971 | 18.89° C | 28% | 1033.6 hPa | - | - | - | - |
| 1777531916 | 18.33° C | 28% | 1033.6 hPa | - | - | - | - |
| 1777530859 | 17.78° C | 29% | 1033.7 hPa | - | - | - | - |
* Rain since midnight (hover to see other rain measurements)
** Current wind speed in m/s (hover to see current wind gust speed)